createdAt,value
2023-05-06T00:02:01.624Z,11.30
2023-05-06T00:04:28.356Z,11.20
2023-05-06T00:06:56.683Z,11.30
2023-05-06T00:09:26.562Z,11.40
2023-05-06T00:11:53.359Z,11.50
2023-05-06T00:14:20.083Z,11.50
2023-05-06T00:16:46.790Z,11.40
2023-05-06T00:19:16.144Z,11.20
2023-05-06T00:21:42.752Z,11.20
2023-05-06T00:24:09.361Z,11.40
2023-05-06T00:26:35.966Z,11.50
2023-05-06T00:29:02.663Z,11.40
2023-05-06T00:31:29.378Z,11.40
2023-05-06T00:33:56.654Z,11.30
2023-05-06T00:36:23.638Z,11.20
2023-05-06T00:38:50.972Z,11.20
2023-05-06T00:41:17.592Z,11.20
2023-05-06T00:43:44.186Z,11.20
2023-05-06T00:46:11.530Z,11.20
2023-05-06T00:48:38.849Z,11.30
2023-05-06T00:51:06.131Z,11.20
2023-05-06T00:53:33.498Z,11.20
2023-05-06T00:56:00.203Z,11.20
2023-05-06T00:58:27.251Z,11.10
2023-05-06T01:00:55.137Z,11.10
2023-05-06T01:03:22.226Z,11.00
2023-05-06T01:06:11.735Z,11.10
2023-05-06T01:08:49.887Z,11.10
2023-05-06T01:11:28.090Z,11.10
2023-05-06T01:14:08.124Z,11.20
2023-05-06T01:16:39.630Z,11.30
2023-05-06T01:19:10.031Z,11.40
2023-05-06T01:21:41.415Z,11.40
2023-05-06T01:24:08.878Z,11.30
2023-05-06T01:26:36.808Z,11.30
2023-05-06T01:29:03.852Z,11.10
2023-05-06T01:31:42.771Z,11.10
2023-05-06T01:34:27.114Z,11.10
2023-05-06T01:37:38.520Z,11.10
2023-05-06T01:40:07.512Z,11.10
2023-05-06T01:42:36.113Z,11.00
2023-05-06T01:45:04.915Z,11.10
2023-05-06T01:47:32.360Z,11.10
2023-05-06T01:50:00.488Z,11.20
2023-05-06T01:52:27.117Z,11.20
2023-05-06T01:54:53.976Z,11.30
2023-05-06T01:57:20.643Z,11.30
2023-05-06T01:59:47.264Z,11.30
2023-05-06T02:02:14.003Z,11.40
2023-05-06T02:04:40.685Z,11.40
2023-05-06T02:07:07.577Z,11.30
2023-05-06T02:09:34.262Z,11.30
2023-05-06T02:12:02.637Z,11.20
2023-05-06T02:14:29.441Z,11.00
2023-05-06T02:16:57.531Z,10.90
2023-05-06T02:19:24.216Z,10.90
2023-05-06T02:21:50.936Z,10.80
2023-05-06T02:24:17.596Z,10.80
2023-05-06T02:26:45.331Z,10.80
2023-05-06T02:29:12.371Z,10.90
2023-05-06T02:31:39.056Z,10.90
2023-05-06T02:34:05.884Z,11.00
2023-05-06T02:36:33.077Z,11.00
2023-05-06T02:38:59.681Z,11.00
2023-05-06T02:41:26.291Z,11.00
2023-05-06T02:43:52.911Z,11.00
2023-05-06T02:46:19.627Z,11.00
2023-05-06T02:48:46.258Z,10.90
2023-05-06T02:51:13.095Z,10.90
2023-05-06T02:53:39.740Z,11.00
2023-05-06T02:56:06.547Z,10.90
2023-05-06T02:58:33.210Z,10.90
2023-05-06T03:00:59.901Z,11.00
2023-05-06T03:03:26.581Z,11.00
2023-05-06T03:05:53.170Z,11.00
2023-05-06T03:08:19.880Z,10.90
2023-05-06T03:10:46.624Z,10.90
2023-05-06T03:13:15.761Z,10.80
2023-05-06T03:15:42.425Z,10.80
2023-05-06T03:18:09.260Z,10.70
2023-05-06T03:20:36.509Z,10.60
2023-05-06T03:23:03.693Z,10.70
2023-05-06T03:25:30.895Z,10.60
2023-05-06T03:27:57.491Z,10.70
2023-05-06T03:30:24.139Z,10.60
2023-05-06T03:32:55.945Z,10.60
2023-05-06T03:35:28.669Z,10.60
2023-05-06T03:37:58.226Z,10.50
2023-05-06T03:40:28.796Z,10.50
2023-05-06T03:42:56.559Z,10.50
2023-05-06T03:45:23.814Z,10.40
2023-05-06T03:47:50.812Z,10.40
2023-05-06T03:50:19.819Z,10.30
2023-05-06T03:52:46.599Z,10.30
2023-05-06T03:55:14.229Z,10.30
2023-05-06T03:57:41.102Z,10.40
2023-05-06T04:00:09.102Z,10.40
2023-05-06T04:02:43.450Z,10.40
2023-05-06T04:05:16.174Z,10.40
2023-05-06T04:07:44.152Z,10.20
2023-05-06T04:10:11.584Z,10.30
2023-05-06T04:12:39.855Z,10.20
2023-05-06T04:15:07.889Z,10.30
2023-05-06T04:17:34.996Z,10.30
2023-05-06T04:20:11.308Z,10.10
2023-05-06T04:22:39.092Z,10.00
2023-05-06T04:25:06.777Z,9.90
2023-05-06T04:27:36.237Z,9.90
2023-05-06T04:30:06.178Z,10.00
2023-05-06T04:32:34.059Z,10.00
2023-05-06T04:35:02.005Z,9.90
2023-05-06T04:37:28.953Z,9.80
2023-05-06T04:40:06.333Z,9.90
2023-05-06T04:42:35.903Z,10.10
2023-05-06T04:45:11.527Z,10.00
2023-05-06T04:47:40.264Z,10.00
2023-05-06T04:50:08.608Z,9.90
2023-05-06T04:52:36.118Z,10.00
2023-05-06T04:55:03.958Z,10.00
2023-05-06T04:57:33.330Z,10.00
2023-05-06T05:00:00.282Z,10.00
2023-05-06T05:02:27.033Z,9.90
2023-05-06T05:04:53.902Z,9.80
2023-05-06T05:07:20.644Z,9.90
2023-05-06T05:09:47.710Z,10.00
2023-05-06T05:12:14.414Z,10.00
2023-05-06T05:14:47.208Z,10.00
2023-05-06T05:17:14.730Z,10.10
2023-05-06T05:19:41.996Z,10.10
2023-05-06T05:22:09.087Z,10.20
2023-05-06T05:24:35.844Z,10.20
2023-05-06T05:27:02.510Z,10.20
2023-05-06T05:29:29.679Z,10.30
2023-05-06T05:31:58.030Z,10.20
2023-05-06T05:34:24.675Z,10.40
2023-05-06T05:36:51.702Z,10.50
2023-05-06T05:39:18.702Z,10.50
2023-05-06T05:41:47.492Z,10.50
2023-05-06T05:44:14.539Z,10.60
2023-05-06T05:46:42.389Z,10.70
2023-05-06T05:49:12.328Z,10.70
2023-05-06T05:51:39.412Z,10.60
2023-05-06T05:54:07.566Z,10.70
2023-05-06T05:56:35.257Z,10.50
2023-05-06T05:59:02.015Z,10.70
2023-05-06T06:01:28.752Z,10.80
2023-05-06T06:03:56.346Z,10.80
2023-05-06T06:06:24.227Z,10.90
2023-05-06T06:08:52.292Z,11.00
2023-05-06T06:11:19.805Z,11.00
2023-05-06T06:13:46.525Z,11.10
2023-05-06T06:16:13.448Z,11.20
2023-05-06T06:18:40.322Z,11.30
2023-05-06T06:21:07.080Z,11.30
2023-05-06T06:23:35.012Z,11.50
2023-05-06T06:26:03.716Z,11.60
2023-05-06T06:28:32.721Z,11.50
2023-05-06T06:30:59.585Z,11.50
2023-05-06T06:33:26.802Z,11.60
2023-05-06T06:35:53.575Z,11.60
2023-05-06T06:38:20.373Z,11.60
2023-05-06T06:40:47.462Z,11.60
2023-05-06T06:43:14.081Z,11.50
2023-05-06T06:45:56.784Z,11.60
2023-05-06T06:48:23.595Z,11.60
2023-05-06T06:50:50.480Z,11.70
2023-05-06T06:53:17.455Z,11.80
2023-05-06T06:55:45.144Z,11.80
2023-05-06T06:58:12.206Z,11.90
2023-05-06T07:00:38.858Z,12.00
2023-05-06T07:03:05.655Z,12.10
2023-05-06T07:05:32.417Z,11.80
2023-05-06T07:07:59.128Z,11.50
2023-05-06T07:10:25.820Z,11.70
2023-05-06T07:12:52.699Z,11.80
2023-05-06T07:15:19.627Z,11.90
2023-05-06T07:17:46.731Z,12.20
2023-05-06T07:20:13.576Z,12.40
2023-05-06T07:22:41.736Z,12.70
2023-05-06T07:25:09.038Z,13.20
2023-05-06T07:27:35.804Z,13.50
2023-05-06T07:30:06.403Z,13.80
2023-05-06T07:32:33.564Z,14.20
2023-05-06T07:35:00.290Z,14.30
2023-05-06T07:37:27.085Z,14.70
2023-05-06T07:39:53.711Z,15.20
2023-05-06T07:42:20.461Z,15.50
2023-05-06T07:44:47.102Z,15.80
2023-05-06T07:47:27.646Z,15.90
2023-05-06T07:49:55.039Z,16.10
2023-05-06T07:52:22.986Z,15.80
2023-05-06T07:54:50.072Z,16.00
2023-05-06T07:57:16.898Z,16.60
2023-05-06T07:59:46.975Z,16.80
2023-05-06T08:02:13.883Z,16.30
2023-05-06T08:04:40.807Z,16.30
2023-05-06T08:07:07.517Z,16.60
2023-05-06T08:09:34.409Z,16.90
2023-05-06T08:12:01.070Z,16.70
2023-05-06T08:14:27.749Z,17.20
2023-05-06T08:16:54.491Z,17.80
2023-05-06T08:19:23.184Z,18.10
2023-05-06T08:21:50.502Z,18.40
2023-05-06T08:24:17.260Z,18.60
2023-05-06T08:26:43.882Z,18.60
2023-05-06T08:29:10.578Z,18.80
2023-05-06T08:31:37.235Z,18.70
2023-05-06T08:34:03.926Z,18.60
2023-05-06T08:36:30.759Z,18.90
2023-05-06T08:38:57.417Z,19.30
2023-05-06T08:41:26.247Z,19.30
2023-05-06T08:43:54.874Z,19.40
2023-05-06T08:46:21.758Z,18.80
2023-05-06T08:48:48.589Z,19.00
2023-05-06T08:51:15.445Z,19.30
2023-05-06T08:53:49.400Z,19.60
2023-05-06T08:56:16.945Z,19.80
2023-05-06T08:58:46.523Z,20.00
2023-05-06T09:01:14.181Z,19.80
2023-05-06T09:03:40.850Z,19.90
2023-05-06T09:06:07.586Z,19.70
2023-05-06T09:08:34.331Z,19.80
2023-05-06T09:11:01.124Z,19.90
2023-05-06T09:13:27.805Z,19.90
2023-05-06T09:15:55.239Z,20.20
2023-05-06T09:18:22.628Z,20.10
2023-05-06T09:20:49.987Z,20.20
2023-05-06T09:23:18.089Z,20.20
2023-05-06T09:25:46.196Z,20.10
2023-05-06T09:28:13.588Z,19.80
2023-05-06T09:30:46.158Z,19.30
2023-05-06T09:33:13.065Z,18.90
2023-05-06T09:35:42.021Z,18.50
2023-05-06T09:38:09.953Z,18.20
2023-05-06T09:40:37.811Z,17.90
2023-05-06T09:43:05.605Z,18.00
2023-05-06T09:45:32.837Z,18.20
2023-05-06T09:47:59.597Z,18.50
2023-05-06T09:50:26.795Z,18.90
2023-05-06T09:52:55.779Z,19.40
2023-05-06T09:55:26.434Z,19.70
2023-05-06T09:57:53.310Z,19.90
2023-05-06T10:00:26.714Z,20.20
2023-05-06T10:02:54.448Z,20.60
2023-05-06T10:05:22.233Z,20.70
2023-05-06T10:07:50.275Z,21.10
2023-05-06T10:10:17.152Z,21.10
2023-05-06T10:12:44.380Z,21.00
2023-05-06T10:15:11.593Z,21.30
2023-05-06T10:17:40.234Z,21.40
2023-05-06T10:20:09.449Z,21.00
2023-05-06T10:22:59.769Z,20.70
2023-05-06T10:25:39.527Z,20.90
2023-05-06T10:28:22.831Z,21.20
2023-05-06T10:30:58.693Z,20.80
2023-05-06T10:33:26.248Z,19.70
2023-05-06T10:36:00.836Z,20.40
2023-05-06T10:38:35.752Z,19.80
2023-05-06T10:41:02.524Z,19.80
2023-05-06T10:43:33.319Z,20.50
2023-05-06T10:46:17.452Z,20.70
2023-05-06T10:49:06.249Z,20.80
2023-05-06T10:51:42.913Z,20.80
2023-05-06T10:54:10.732Z,21.00
2023-05-06T10:57:07.207Z,20.80
2023-05-06T10:59:33.897Z,20.60
2023-05-06T11:02:04.356Z,20.80
2023-05-06T11:04:31.532Z,20.40
2023-05-06T11:07:10.521Z,20.30
2023-05-06T11:09:57.531Z,20.50
2023-05-06T11:12:49.247Z,20.50
2023-05-06T11:15:26.526Z,21.10
2023-05-06T11:17:56.915Z,21.30
2023-05-06T11:20:25.695Z,21.30
2023-05-06T11:22:53.255Z,21.10
2023-05-06T11:25:40.135Z,21.10
2023-05-06T11:28:08.456Z,21.30
2023-05-06T11:30:37.208Z,21.60
2023-05-06T11:33:05.878Z,21.60
2023-05-06T11:35:38.511Z,21.10
2023-05-06T11:38:05.811Z,20.90
2023-05-06T11:40:32.648Z,20.50
2023-05-06T11:43:13.638Z,20.60
2023-05-06T11:45:45.152Z,20.60
2023-05-06T11:48:13.764Z,20.30
2023-05-06T11:50:45.511Z,19.70
2023-05-06T11:53:13.181Z,19.50
2023-05-06T11:55:40.001Z,19.80
2023-05-06T11:58:06.624Z,20.20
2023-05-06T12:00:33.287Z,20.40
2023-05-06T12:02:59.945Z,20.70
2023-05-06T12:05:28.637Z,20.90
2023-05-06T12:07:55.631Z,20.90
2023-05-06T12:10:22.325Z,21.20
2023-05-06T12:12:49.368Z,21.40
2023-05-06T12:15:16.266Z,21.20
2023-05-06T12:17:42.953Z,21.60
2023-05-06T12:20:11.370Z,21.40
2023-05-06T12:22:38.919Z,21.50
2023-05-06T12:25:15.589Z,21.40
2023-05-06T12:27:42.251Z,21.70
2023-05-06T12:30:09.620Z,22.30
2023-05-06T12:32:56.315Z,22.40
2023-05-06T12:35:29.964Z,22.70
2023-05-06T12:38:06.881Z,21.10
2023-05-06T12:40:33.573Z,20.50
2023-05-06T12:43:00.250Z,20.60
2023-05-06T12:45:26.958Z,20.50
2023-05-06T12:47:55.448Z,20.30
2023-05-06T12:50:42.440Z,20.20
2023-05-06T12:53:13.044Z,20.30
2023-05-06T12:55:45.115Z,19.80
2023-05-06T12:58:19.102Z,19.50
2023-05-06T13:00:46.134Z,19.90
2023-05-06T13:03:13.508Z,19.90
2023-05-06T13:05:40.531Z,19.80
2023-05-06T13:08:07.187Z,20.30
2023-05-06T13:10:33.915Z,20.50
2023-05-06T13:13:00.633Z,20.50
2023-05-06T13:15:27.336Z,20.60
2023-05-06T13:17:54.074Z,20.10
2023-05-06T13:20:20.857Z,20.50
2023-05-06T13:22:54.418Z,20.90
2023-05-06T13:25:22.150Z,21.00
2023-05-06T13:27:49.164Z,21.30
2023-05-06T13:30:16.761Z,21.00
2023-05-06T13:32:43.506Z,20.50
2023-05-06T13:35:10.658Z,20.80
2023-05-06T13:37:37.548Z,20.40
2023-05-06T13:40:04.732Z,20.40
2023-05-06T13:42:31.426Z,19.70
2023-05-06T13:44:58.072Z,19.50
2023-05-06T13:47:25.090Z,19.30
2023-05-06T13:49:51.699Z,19.50
2023-05-06T13:52:19.218Z,19.00
2023-05-06T13:54:46.105Z,18.60
2023-05-06T13:57:12.732Z,18.70
2023-05-06T13:59:39.372Z,18.90
2023-05-06T14:02:09.029Z,19.00
2023-05-06T14:04:36.478Z,19.20
2023-05-06T14:07:03.154Z,19.50
2023-05-06T14:09:29.795Z,19.50
2023-05-06T14:11:56.392Z,19.70
2023-05-06T14:14:23.085Z,19.90
2023-05-06T14:16:51.586Z,19.80
2023-05-06T14:19:18.312Z,20.10
2023-05-06T14:21:44.902Z,20.20
2023-05-06T14:24:12.437Z,20.30
2023-05-06T14:26:40.216Z,20.50
2023-05-06T14:29:06.886Z,20.30
2023-05-06T14:31:34.469Z,20.30
2023-05-06T14:34:02.397Z,20.30
2023-05-06T14:36:29.052Z,19.90
2023-05-06T14:38:56.055Z,19.70
2023-05-06T14:41:22.699Z,19.80
2023-05-06T14:43:49.311Z,20.10
2023-05-06T14:46:16.439Z,20.20
2023-05-06T14:48:43.571Z,20.30
2023-05-06T14:51:10.625Z,19.90
2023-05-06T14:53:37.323Z,19.70
2023-05-06T14:56:04.096Z,19.70
2023-05-06T14:58:30.740Z,19.60
2023-05-06T15:00:57.414Z,19.70
2023-05-06T15:03:24.104Z,20.30
2023-05-06T15:05:51.173Z,20.60
2023-05-06T15:08:17.897Z,20.30
2023-05-06T15:10:44.501Z,20.00
2023-05-06T15:13:11.395Z,19.80
2023-05-06T15:15:38.033Z,19.30
2023-05-06T15:18:04.745Z,18.80
2023-05-06T15:20:31.814Z,18.80
2023-05-06T15:22:58.520Z,19.20
2023-05-06T15:25:34.890Z,19.50
2023-05-06T15:28:02.741Z,19.60
2023-05-06T15:30:29.438Z,19.50
2023-05-06T15:32:56.101Z,19.10
2023-05-06T15:35:22.785Z,19.20
2023-05-06T15:37:49.491Z,19.40
2023-05-06T15:40:16.254Z,19.30
2023-05-06T15:42:42.854Z,19.00
2023-05-06T15:45:10.990Z,18.90
2023-05-06T15:47:37.613Z,18.90
2023-05-06T15:50:14.052Z,18.60
2023-05-06T15:52:47.907Z,18.70
2023-05-06T15:55:14.627Z,18.70
2023-05-06T15:57:43.577Z,18.50
2023-05-06T16:00:12.297Z,18.60
2023-05-06T16:02:39.409Z,18.70
2023-05-06T16:05:06.755Z,18.90
2023-05-06T16:07:33.508Z,18.80
2023-05-06T16:10:00.254Z,18.70
2023-05-06T16:12:26.886Z,18.70
2023-05-06T16:14:53.549Z,18.70
2023-05-06T16:17:20.438Z,18.70
2023-05-06T16:19:47.022Z,18.60
2023-05-06T16:22:13.620Z,18.50
2023-05-06T16:24:40.334Z,18.40
2023-05-06T16:27:06.958Z,18.30
2023-05-06T16:29:33.590Z,18.40
2023-05-06T16:32:00.729Z,18.60
2023-05-06T16:34:27.552Z,18.80
2023-05-06T16:36:54.414Z,18.90
2023-05-06T16:39:21.045Z,18.50
2023-05-06T16:41:47.675Z,18.20
2023-05-06T16:44:14.313Z,18.10
2023-05-06T16:46:41.072Z,18.30
2023-05-06T16:49:07.734Z,18.20
2023-05-06T16:51:34.395Z,18.30
2023-05-06T16:54:01.182Z,18.30
2023-05-06T16:56:36.738Z,18.10
2023-05-06T16:59:11.066Z,17.80
2023-05-06T17:01:37.740Z,17.80
2023-05-06T17:04:04.496Z,17.70
2023-05-06T17:06:32.844Z,17.80
2023-05-06T17:08:59.523Z,17.70
2023-05-06T17:11:26.148Z,17.70
2023-05-06T17:13:54.602Z,17.60
2023-05-06T17:16:21.588Z,17.50
2023-05-06T17:18:48.283Z,17.50
2023-05-06T17:21:16.066Z,17.60
2023-05-06T17:23:43.260Z,17.50
2023-05-06T17:28:56.450Z,17.30
2023-05-06T17:31:23.620Z,17.30
2023-05-06T17:33:50.501Z,17.20
2023-05-06T17:36:19.180Z,17.10
2023-05-06T17:38:46.003Z,17.10
2023-05-06T17:41:12.651Z,17.10
2023-05-06T17:43:39.389Z,16.90
2023-05-06T17:46:07.856Z,16.90
2023-05-06T17:48:35.195Z,16.90
2023-05-06T17:51:02.710Z,16.80
2023-05-06T17:53:30.841Z,16.70
2023-05-06T17:55:57.486Z,16.70
2023-05-06T17:58:24.198Z,16.70
2023-05-06T18:00:50.860Z,16.70
2023-05-06T18:03:17.546Z,16.60
2023-05-06T18:05:45.468Z,16.50
2023-05-06T18:08:12.432Z,16.30
2023-05-06T18:10:41.083Z,16.30
2023-05-06T18:13:08.197Z,16.20
2023-05-06T18:15:34.829Z,16.20
2023-05-06T18:18:01.551Z,16.20
2023-05-06T18:20:28.353Z,16.10
2023-05-06T18:22:54.996Z,16.10
2023-05-06T18:25:21.760Z,16.00
2023-05-06T18:27:49.177Z,16.00
2023-05-06T18:30:16.416Z,16.10
2023-05-06T18:32:43.114Z,16.00
2023-05-06T18:35:13.019Z,16.00
2023-05-06T18:37:39.886Z,15.90
2023-05-06T18:40:09.099Z,15.80
2023-05-06T18:42:35.964Z,15.80
2023-05-06T18:45:04.634Z,15.70
2023-05-06T18:47:32.030Z,15.60
2023-05-06T18:50:00.512Z,15.50
2023-05-06T18:52:27.513Z,15.50
2023-05-06T18:54:54.577Z,15.60
2023-05-06T18:57:21.432Z,15.50
2023-05-06T18:59:48.020Z,15.60
2023-05-06T19:02:14.636Z,15.60
2023-05-06T19:04:41.233Z,15.50
2023-05-06T19:07:07.886Z,15.50
2023-05-06T19:09:37.106Z,15.40
2023-05-06T19:12:04.315Z,15.30
2023-05-06T19:14:37.572Z,15.30
2023-05-06T19:17:04.956Z,15.40
2023-05-06T19:19:31.778Z,15.30
2023-05-06T19:21:59.704Z,15.20
2023-05-06T19:24:26.600Z,15.20
2023-05-06T19:26:53.270Z,15.10
2023-05-06T19:29:19.897Z,15.20
2023-05-06T19:31:46.545Z,15.20
2023-05-06T19:34:13.150Z,15.20
2023-05-06T19:36:39.829Z,15.10
2023-05-06T19:39:06.481Z,15.10
2023-05-06T19:41:33.625Z,15.20
2023-05-06T19:44:00.304Z,15.10
2023-05-06T19:46:26.940Z,15.00
2023-05-06T19:48:53.751Z,15.10
2023-05-06T19:51:20.951Z,15.00
2023-05-06T19:53:48.837Z,15.10
2023-05-06T19:56:17.022Z,15.10
2023-05-06T19:58:44.149Z,15.10
2023-05-06T20:01:11.167Z,15.00
2023-05-06T20:03:38.210Z,15.00
2023-05-06T20:06:05.259Z,15.20
2023-05-06T20:08:31.897Z,15.20
2023-05-06T20:10:58.536Z,15.20
2023-05-06T20:13:25.838Z,15.10
2023-05-06T20:15:54.606Z,15.00
2023-05-06T20:18:21.405Z,15.10
2023-05-06T20:20:48.088Z,15.10
2023-05-06T20:23:14.850Z,15.10
2023-05-06T20:25:41.625Z,15.00
2023-05-06T20:28:08.328Z,14.90
2023-05-06T20:30:35.161Z,14.80
2023-05-06T20:33:02.489Z,14.90
2023-05-06T20:35:29.213Z,14.90
2023-05-06T20:37:55.903Z,15.00
2023-05-06T20:40:22.644Z,15.00
2023-05-06T20:42:49.319Z,15.00
2023-05-06T20:45:15.969Z,14.90
2023-05-06T20:47:42.675Z,14.70
2023-05-06T20:50:16.443Z,14.60
2023-05-06T20:52:45.475Z,14.50
2023-05-06T20:55:13.946Z,14.40
2023-05-06T20:57:44.381Z,14.30
2023-05-06T21:00:11.542Z,14.20
2023-05-06T21:02:41.164Z,14.00
2023-05-06T21:05:09.753Z,13.70
2023-05-06T21:07:37.029Z,13.60
2023-05-06T21:10:05.714Z,13.50
2023-05-06T21:12:33.385Z,13.50
2023-05-06T21:15:00.708Z,13.50
2023-05-06T21:17:28.228Z,13.50
2023-05-06T21:19:55.134Z,13.40
2023-05-06T21:22:23.651Z,13.30
2023-05-06T21:24:50.938Z,13.20
2023-05-06T21:27:17.661Z,13.10
2023-05-06T21:29:44.375Z,13.10
2023-05-06T21:32:11.189Z,13.10
2023-05-06T21:34:37.954Z,13.10
2023-05-06T21:37:04.562Z,13.20
2023-05-06T21:39:31.251Z,13.40
2023-05-06T21:41:58.025Z,13.40
2023-05-06T21:44:24.667Z,13.40
2023-05-06T21:46:51.414Z,13.40
2023-05-06T21:49:19.286Z,13.40
2023-05-06T21:51:46.000Z,13.50
2023-05-06T21:54:12.824Z,13.50
2023-05-06T21:56:39.443Z,13.40
2023-05-06T21:59:07.799Z,13.40
2023-05-06T22:01:36.137Z,13.40
2023-05-06T22:04:04.637Z,13.40
2023-05-06T22:06:31.521Z,13.40
2023-05-06T22:08:58.160Z,13.50
2023-05-06T22:11:24.842Z,13.40
2023-05-06T22:13:51.740Z,13.50
2023-05-06T22:16:18.504Z,13.40
2023-05-06T22:18:45.207Z,13.50
2023-05-06T22:21:11.869Z,13.50
2023-05-06T22:23:40.410Z,13.40
2023-05-06T22:26:07.274Z,13.40
2023-05-06T22:28:36.976Z,13.40
2023-05-06T22:31:03.729Z,13.40
2023-05-06T22:33:30.408Z,13.40
2023-05-06T22:35:57.096Z,13.30
2023-05-06T22:38:23.798Z,13.40
2023-05-06T22:40:51.038Z,13.30
2023-05-06T22:43:17.673Z,13.40
2023-05-06T22:45:44.507Z,13.50
2023-05-06T22:48:11.213Z,13.40
2023-05-06T22:50:38.012Z,13.40
2023-05-06T22:53:13.551Z,13.40
2023-05-06T22:55:41.962Z,13.40
2023-05-06T22:58:08.646Z,13.40
2023-05-06T23:00:35.288Z,13.30
2023-05-06T23:03:02.671Z,13.30
2023-05-06T23:05:29.379Z,13.30
2023-05-06T23:07:55.964Z,13.20
2023-05-06T23:10:22.567Z,13.20
2023-05-06T23:12:49.340Z,13.20
2023-05-06T23:15:16.075Z,13.20
2023-05-06T23:17:42.739Z,13.20
2023-05-06T23:20:11.776Z,13.10
2023-05-06T23:22:38.597Z,13.00
2023-05-06T23:25:05.895Z,13.10
2023-05-06T23:27:32.493Z,13.00
2023-05-06T23:29:59.223Z,13.00
2023-05-06T23:32:26.093Z,13.00
2023-05-06T23:34:52.830Z,12.90
2023-05-06T23:37:19.516Z,12.90
2023-05-06T23:39:47.489Z,12.80
2023-05-06T23:42:22.776Z,12.80
2023-05-06T23:44:49.481Z,12.80
2023-05-06T23:47:16.127Z,12.80
2023-05-06T23:49:42.718Z,12.70
2023-05-06T23:52:09.397Z,12.70
2023-05-06T23:54:36.345Z,12.70
2023-05-06T23:57:03.036Z,12.60
2023-05-06T23:59:32.021Z,12.60
